Local and Regional Airport Weather



KPVE - Beech River Regional Airport
Distance from station: NW 4mi, 6km
Updated: Sat, Oct-21-2017 7:35pm CDT
Overcast
Overcast
 Wind from SSE
Wind: SSE 3 mph , 6 km/h
Temperature: 72°F , 22°C
Dew Point: 61°F , 16°C
Humidity: 69%
Barometer: 30.13 inHg , 1020.3 hPa
Clouds: Overcast
Visibility: 10 miles , 16 km
Cloud details: Overcast 2600 ft
2017/10/22 00:35 KPVE 220035Z AUTO 16003KT 10SM OVC026 22/16 A3013 RMK A01
KSNH - Savannah Hardin Co. Airport
Distance from station: S 34mi, 54km
Updated: Sat, Oct-21-2017 7:35pm CDT
Overcast
Overcast
 Wind from S
Wind: S 5 mph , 7 km/h
Temperature: 72°F , 22°C
Dew Point: 63°F , 17°C
Humidity: 73%
Barometer: 30.13 inHg , 1020.3 hPa
Clouds: Overcast
Visibility: 10 miles , 16 km
Cloud details: Overcast 4800 ft
2017/10/22 00:35 KSNH 220035Z AUTO 17004KT 10SM OVC048 22/17 A3013 RMK A01
 
KMKL - McKellar-Sipes Regional Airport
Distance from station: W 44mi, 72km
Updated: Sat, Oct-21-2017 6:53pm CDT
Clear
Clear
 Wind from SSE
Wind: SSE 5 mph , 7 km/h
Temperature: 73°F , 23°C
Dew Point: 63°F , 17°C
Humidity: 69%
Barometer: 30.11 inHg , 1019.6 hPa
Clouds: Clear
Visibility: 10 miles , 16 km
2017/10/21 23:53 KMKL 212353Z AUTO 15004KT 10SM CLR 23/17 A3011 RMK AO2 SLP193 T02280172 10267 20228 53001
KMSL - NW Alabama Regional Airport
Distance from station: SE 78mi, 126km
Updated: Sat, Oct-21-2017 6:53pm CDT
Clear
Clear
 Wind from SE
Wind: SE 3 mph , 6 km/h
Temperature: 68°F , 20°C
Dew Point: 61°F , 16°C
Humidity: 78%
Barometer: 30.17 inHg , 1021.7 hPa
Clouds: Clear
Visibility: 10 miles , 16 km
2017/10/21 23:53 KMSL 212353Z AUTO 13003KT 10SM CLR 20/16 A3017 RMK AO2 SLP214 T02000156 10267 20200 53002
 
KBNA - Nashville International Airport
Distance from station: NE 97mi, 157km
Updated: Sat, Oct-21-2017 6:53pm CDT
Mostly cloudy
Mostly cloudy
 Wind from SSE
Wind: SSE 7 mph , 11 km/h
Temperature: 72°F , 22°C
Dew Point: 55°F , 13°C
Humidity: 57%
Barometer: 30.17 inHg , 1021.7 hPa
Clouds: Mostly cloudy
Visibility: 10 miles , 16 km
Cloud details: Few Clouds 22000 ft
Mostly cloudy 25000 ft
2017/10/21 23:53 KBNA 212353Z 15006KT 10SM FEW220 BKN250 22/13 A3017 RMK AO2 SLP213 T02170133 10261 20217 57001
KMEM - Memphis International Airport
Distance from station: W 108mi, 173km
Updated: Sat, Oct-21-2017 6:54pm CDT
Mostly cloudy
Mostly cloudy
 Wind from SE
Wind: SE 10 mph , 17 km/h
Temperature: 75°F , 24°C
Dew Point: 63°F , 17°C
Humidity: 65%
Barometer: 30.06 inHg , 1017.9 hPa
Clouds: Mostly cloudy
Visibility: 10 miles , 16 km
Cloud details: Partly cloudy 15000 ft
Mostly cloudy 25000 ft
2017/10/21 23:54 KMEM 212354Z 14009KT 10SM SCT150 BKN250 24/17 A3006 RMK AO2 SLP175 T02440172 10278 20244 $
 
KTYS - Knoxville McGhee Tyson Airport
Distance from station: E 234mi, 377km
Updated: Sat, Oct-21-2017 6:53pm CDT
Mostly cloudy
Mostly cloudy
 Wind from ENE
Wind: ENE 3 mph , 6 km/h
Temperature: 66°F , 19°C
Dew Point: 55°F , 13°C
Humidity: 68%
Barometer: 30.24 inHg , 1024 hPa
Clouds: Mostly cloudy
Visibility: 10 miles , 16 km
Cloud details: Mostly cloudy 25000 ft
2017/10/21 23:53 KTYS 212353Z 07003KT 10SM BKN250 19/13 A3024 RMK AO2 SLP236 T01890133 10244 20189 58001 $
KSTL - St. Louis International Airport
Distance from station: NW 247mi, 398km
Updated: Sat, Oct-21-2017 6:51pm CDT
Mostly cloudy
Mostly cloudy
 Wind from SSE
Wind: SSE 12 mph , 19 km/h
Temperature: 77°F , 25°C
Dew Point: 61°F , 16°C
Humidity: 57%
Barometer: 29.98 inHg , 1015.2 hPa
Clouds: Mostly cloudy
Visibility: 10 miles , 16 km
Cloud details: Mostly cloudy 7000 ft
2017/10/21 23:51 KSTL 212351Z 16010KT 10SM BKN070 25/16 A2998 RMK AO2 SLP145 T02500161 10272 20222 50005 $

Refresh Page for latest data.